Cacouna, Canada
Current Conditions -  °F | °C
As of 9:19 PM on Wednesday 17 Dec 2014 (Local Time) from KFVE Reporting Station
Light Snow Light Snow  
Wind Chill: 18°   Ceiling: 1800
Heat Index: 27°   Visibility: 1.2mi
Dew Point: 25°   Wind: 9mph
Humidity: 92%   Direction: 40°NE
Pressure: 29.76"   Gusts: NA
Location:  47.91°N, 69.51°W
Report Text: KFVE 180219Z AUTO 04008KT 1 1/4SM -SN BR FEW006 OVC018 M03/M04 A2976 RMK AO2 P0001 T10281039
Loading
Personal Weather Stations






























Interactive Weather Map New forecast layout! Learn more

10-Day Weather Forecast

Advertisements
Track Severe Weather on mobile